createdAt,value
2018-09-14T00:02:22.674Z,11.50
2018-09-14T00:04:51.657Z,11.50
2018-09-14T00:07:19.803Z,12.03
2018-09-14T00:09:47.871Z,10.70
2018-09-14T00:12:16.180Z,12.53
2018-09-14T00:14:44.379Z,11.60
2018-09-14T00:17:12.988Z,10.13
2018-09-14T00:19:41.705Z,10.97
2018-09-14T00:22:09.599Z,11.07
2018-09-14T00:24:39.070Z,13.33
2018-09-14T00:27:07.038Z,11.47
2018-09-14T00:29:36.974Z,12.53
2018-09-14T00:32:05.063Z,11.13
2018-09-14T00:34:34.187Z,10.50
2018-09-14T00:37:02.622Z,12.83
2018-09-14T00:39:31.935Z,12.53
2018-09-14T00:42:00.861Z,12.43
2018-09-14T00:44:29.439Z,12.13
2018-09-14T00:46:58.152Z,13.50
2018-09-14T00:49:26.902Z,13.20
2018-09-14T00:51:55.354Z,12.57
2018-09-14T00:54:25.277Z,12.50
2018-09-14T00:56:54.211Z,12.20
2018-09-14T00:59:22.987Z,13.70
2018-09-14T01:01:52.579Z,10.83
2018-09-14T01:04:20.910Z,11.30
2018-09-14T01:06:48.917Z,11.80
2018-09-14T01:09:23.160Z,11.37
2018-09-14T01:11:51.260Z,11.03
2018-09-14T01:14:20.129Z,12.03
2018-09-14T01:16:48.276Z,11.93
2018-09-14T01:19:18.735Z,11.60
2018-09-14T01:21:48.167Z,10.40
2018-09-14T01:24:16.763Z,11.40
2018-09-14T01:26:46.435Z,10.70
2018-09-14T01:29:14.585Z,11.53
2018-09-14T01:31:42.810Z,11.73
2018-09-14T01:34:13.091Z,12.97
2018-09-14T01:36:41.115Z,11.00
2018-09-14T01:39:11.101Z,11.60
2018-09-14T01:41:40.331Z,12.27
2018-09-14T01:44:08.767Z,11.67
2018-09-14T01:46:38.246Z,12.20
2018-09-14T01:49:08.562Z,10.80
2018-09-14T01:51:37.549Z,12.10
2018-09-14T01:54:06.565Z,12.60
2018-09-14T01:56:35.854Z,10.80
2018-09-14T01:59:03.903Z,13.90
2018-09-14T02:01:32.965Z,14.50
2018-09-14T02:04:02.805Z,13.77
2018-09-14T02:06:31.413Z,12.63
2018-09-14T02:09:00.630Z,12.47
2018-09-14T02:11:28.497Z,12.30
2018-09-14T02:13:56.794Z,11.43
2018-09-14T02:16:26.132Z,14.83
2018-09-14T02:18:54.846Z,12.40
2018-09-14T02:21:23.194Z,13.23
2018-09-14T02:23:51.089Z,12.10
2018-09-14T02:26:18.957Z,12.70
2018-09-14T02:28:47.867Z,12.63
2018-09-14T02:31:15.784Z,12.83
2018-09-14T02:33:43.667Z,12.80
2018-09-14T02:36:11.666Z,14.23
2018-09-14T02:38:39.597Z,12.80
2018-09-14T02:41:07.556Z,15.13
2018-09-14T02:43:35.508Z,14.40
2018-09-14T02:46:03.853Z,15.10
2018-09-14T02:48:31.885Z,13.80
2018-09-14T02:51:00.822Z,13.90
2018-09-14T02:53:30.864Z,14.70
2018-09-14T02:55:59.883Z,15.10
2018-09-14T02:58:27.816Z,12.77
2018-09-14T03:00:56.675Z,13.47
2018-09-14T03:03:24.632Z,14.47
2018-09-14T03:05:54.251Z,13.80
2018-09-14T03:08:22.155Z,14.07
2018-09-14T03:10:51.175Z,15.50
2018-09-14T03:13:19.069Z,14.53
2018-09-14T03:15:48.568Z,16.00
2018-09-14T03:18:17.030Z,16.60
2018-09-14T03:20:45.030Z,17.13
2018-09-14T03:23:14.309Z,17.20
2018-09-14T03:25:42.949Z,17.33
2018-09-14T03:28:10.939Z,17.63
2018-09-14T03:30:38.800Z,16.40
2018-09-14T03:33:07.280Z,18.00
2018-09-14T03:35:35.975Z,18.30
2018-09-14T03:38:04.053Z,17.23
2018-09-14T03:40:31.946Z,18.30
2018-09-14T03:42:59.823Z,17.07
2018-09-14T03:45:27.776Z,18.67
2018-09-14T03:47:55.797Z,18.00
2018-09-14T03:50:24.391Z,17.27
2018-09-14T03:52:53.129Z,17.30
2018-09-14T03:55:22.612Z,17.50
2018-09-14T03:57:51.562Z,19.03
2018-09-14T04:00:20.084Z,18.77
2018-09-14T04:02:49.069Z,18.27
2018-09-14T04:05:17.597Z,19.30
2018-09-14T04:07:45.557Z,21.00
2018-09-14T04:10:18.810Z,21.33
2018-09-14T04:12:47.284Z,19.70
2018-09-14T04:15:15.281Z,19.70
2018-09-14T04:17:43.240Z,20.77
2018-09-14T04:20:11.154Z,21.97
2018-09-14T04:22:39.096Z,22.83
2018-09-14T04:25:07.080Z,20.83
2018-09-14T04:27:34.950Z,23.70
2018-09-14T04:30:02.947Z,23.00
2018-09-14T04:32:31.553Z,22.80
2018-09-14T04:34:59.445Z,21.70
2018-09-14T04:40:09.232Z,24.03
2018-09-14T04:42:37.109Z,24.73
2018-09-14T04:45:05.945Z,24.83
2018-09-14T04:47:33.824Z,25.87
2018-09-14T04:50:01.739Z,26.50
2018-09-14T04:52:29.669Z,28.10
2018-09-14T04:54:58.463Z,27.93
2018-09-14T04:57:28.405Z,26.47
2018-09-14T04:59:59.964Z,27.90
2018-09-14T05:02:29.520Z,28.63
2018-09-14T05:04:58.675Z,28.20
2018-09-14T05:07:28.790Z,25.53
2018-09-14T05:09:56.842Z,27.87
2018-09-14T05:12:25.235Z,27.83
2018-09-14T05:14:54.637Z,26.60
2018-09-14T05:17:22.982Z,27.53
2018-09-14T05:19:51.030Z,30.63
2018-09-14T05:22:20.035Z,28.50
2018-09-14T05:24:52.734Z,30.20
2018-09-14T05:27:23.078Z,27.27
2018-09-14T05:29:51.924Z,27.90
2018-09-14T05:32:21.130Z,25.80
2018-09-14T05:34:50.321Z,40.80
2018-09-14T05:37:19.168Z,28.80
2018-09-14T05:39:47.054Z,27.57
2018-09-14T05:42:14.880Z,28.20
2018-09-14T05:44:42.781Z,26.30
2018-09-14T05:47:11.406Z,26.20
2018-09-14T05:49:39.274Z,25.57
2018-09-14T05:52:08.347Z,27.50
2018-09-14T05:54:37.347Z,27.30
2018-09-14T05:57:05.342Z,28.20
2018-09-14T05:59:33.318Z,28.30
2018-09-14T06:02:01.254Z,29.50
2018-09-14T06:04:30.107Z,28.03
2018-09-14T06:06:58.808Z,28.33
2018-09-14T06:09:27.258Z,28.53
2018-09-14T06:11:55.173Z,29.03
2018-09-14T06:14:23.650Z,30.07
2018-09-14T06:16:52.190Z,28.30
2018-09-14T06:19:20.115Z,27.80
2018-09-14T06:21:48.008Z,26.83
2018-09-14T06:24:17.877Z,29.53
2018-09-14T06:26:47.068Z,31.60
2018-09-14T06:29:16.790Z,29.30
2018-09-14T06:31:52.021Z,31.10
2018-09-14T06:34:27.723Z,33.20
2018-09-14T06:36:57.462Z,28.77
2018-09-14T06:39:27.428Z,30.20
2018-09-14T06:42:18.239Z,29.33
2018-09-14T06:44:52.271Z,31.10
2018-09-14T06:47:21.828Z,32.30
2018-09-14T06:49:55.029Z,29.37
2018-09-14T06:52:25.684Z,29.73
2018-09-14T06:54:56.534Z,34.57
2018-09-14T06:57:31.831Z,31.57
2018-09-14T07:00:05.425Z,33.23
2018-09-14T07:02:38.965Z,32.77
2018-09-14T07:05:15.244Z,34.67
2018-09-14T07:07:48.600Z,31.20
2018-09-14T07:10:20.067Z,30.37
2018-09-14T07:12:51.550Z,32.33
2018-09-14T07:15:22.250Z,31.20
2018-09-14T07:17:54.949Z,32.70
2018-09-14T07:20:25.846Z,33.03
2018-09-14T07:23:03.055Z,34.20
2018-09-14T07:25:40.857Z,31.93
2018-09-14T07:28:18.854Z,34.30
2018-09-14T07:30:49.687Z,35.63
2018-09-14T07:33:21.070Z,36.17
2018-09-14T07:35:53.564Z,35.03
2018-09-14T07:38:27.564Z,36.93
2018-09-14T07:41:03.036Z,35.90
2018-09-14T07:43:39.362Z,35.90
2018-09-14T07:46:10.871Z,34.03
2018-09-14T07:48:43.441Z,35.97
2018-09-14T07:51:18.581Z,31.20
2018-09-14T07:53:53.174Z,34.27
2018-09-14T07:56:21.103Z,31.80
2018-09-14T07:58:53.275Z,31.00
2018-09-14T08:01:27.874Z,35.23
2018-09-14T08:03:57.085Z,34.37
2018-09-14T08:06:32.745Z,30.10
2018-09-14T08:09:05.886Z,26.33
2018-09-14T08:11:39.607Z,26.10
2018-09-14T08:14:15.383Z,23.77
2018-09-14T08:16:43.954Z,24.03
2018-09-14T08:19:11.855Z,27.37
2018-09-14T08:21:47.335Z,23.93
2018-09-14T08:24:26.287Z,23.57
2018-09-14T08:27:02.224Z,19.47
2018-09-14T08:29:32.702Z,17.03
2018-09-14T08:32:05.684Z,15.60
2018-09-14T08:34:40.598Z,14.03
2018-09-14T08:37:20.706Z,17.00
2018-09-14T08:39:49.564Z,16.23
2018-09-14T08:42:17.469Z,15.97
2018-09-14T08:44:45.391Z,14.97
2018-09-14T08:47:14.300Z,14.73
2018-09-14T08:49:43.488Z,14.43
2018-09-14T08:52:12.243Z,15.83
2018-09-14T08:54:40.125Z,17.90
2018-09-14T08:57:07.942Z,17.37
2018-09-14T08:59:35.878Z,15.63
2018-09-14T09:02:03.960Z,11.50
2018-09-14T09:04:31.842Z,11.60
2018-09-14T09:06:59.691Z,11.87
2018-09-14T09:09:27.805Z,9.30
2018-09-14T09:11:55.702Z,7.83
2018-09-14T09:14:23.558Z,7.23
2018-09-14T09:16:52.172Z,6.97
2018-09-14T09:19:20.064Z,6.60
2018-09-14T09:21:48.267Z,6.77
2018-09-14T09:24:17.158Z,6.57
2018-09-14T09:26:45.042Z,6.17
2018-09-14T09:29:13.205Z,5.03
2018-09-14T09:31:41.210Z,5.10
2018-09-14T09:34:09.108Z,4.00
2018-09-14T09:36:37.511Z,3.43
2018-09-14T09:39:10.219Z,4.10
2018-09-14T09:41:38.480Z,4.27
2018-09-14T09:44:06.747Z,4.27
2018-09-14T09:46:34.604Z,6.00
2018-09-14T09:49:02.482Z,4.97
2018-09-14T09:51:30.399Z,3.77
2018-09-14T09:53:59.340Z,3.23
2018-09-14T09:56:27.272Z,2.90
2018-09-14T09:58:55.178Z,2.97
2018-09-14T10:01:29.483Z,2.73
2018-09-14T10:04:03.083Z,2.20
2018-09-14T10:06:31.019Z,2.80
2018-09-14T10:08:59.160Z,2.80
2018-09-14T10:11:27.088Z,2.37
2018-09-14T10:13:55.294Z,2.20
2018-09-14T10:16:23.155Z,2.70
2018-09-14T10:18:51.576Z,2.73
2018-09-14T10:21:24.394Z,2.40
2018-09-14T10:23:56.182Z,2.90
2018-09-14T10:26:25.276Z,2.77
2018-09-14T10:28:53.250Z,2.40
2018-09-14T10:31:22.162Z,2.20
2018-09-14T10:33:50.103Z,2.40
2018-09-14T10:36:17.981Z,2.80
2018-09-14T10:38:51.273Z,2.87
2018-09-14T10:41:19.246Z,2.10
2018-09-14T10:43:55.457Z,3.67
2018-09-14T10:46:26.587Z,3.20
2018-09-14T10:48:57.595Z,2.70
2018-09-14T10:51:25.646Z,3.07
2018-09-14T10:53:57.484Z,3.70
2018-09-14T10:56:26.510Z,3.63
2018-09-14T10:58:59.324Z,3.90
2018-09-14T11:01:33.202Z,3.10
2018-09-14T11:04:07.568Z,3.00
2018-09-14T11:06:45.445Z,2.80
2018-09-14T11:09:21.573Z,2.73
2018-09-14T11:11:56.886Z,3.30
2018-09-14T11:14:30.405Z,2.97
2018-09-14T11:17:06.007Z,3.20
2018-09-14T11:19:50.611Z,2.57
2018-09-14T11:22:31.607Z,2.60
2018-09-14T11:25:04.059Z,2.87
2018-09-14T11:27:38.628Z,3.10
2018-09-14T11:30:26.031Z,3.40
2018-09-14T11:32:59.717Z,3.80
2018-09-14T11:35:34.127Z,3.40
2018-09-14T11:38:03.350Z,4.80
2018-09-14T11:40:38.640Z,4.00
2018-09-14T11:43:20.951Z,3.73
2018-09-14T11:45:55.541Z,3.30
2018-09-14T11:48:32.031Z,3.53
2018-09-14T11:51:07.834Z,3.20
2018-09-14T11:53:45.164Z,7.17
2018-09-14T11:56:14.071Z,3.50
2018-09-14T11:58:42.798Z,3.10
2018-09-14T12:01:21.430Z,3.73
2018-09-14T12:03:57.846Z,3.90
2018-09-14T12:06:31.219Z,3.30
2018-09-14T12:09:06.224Z,3.20
2018-09-14T12:11:34.440Z,3.53
2018-09-14T12:14:09.512Z,4.13
2018-09-14T12:16:43.547Z,3.90
2018-09-14T12:19:16.883Z,4.27
2018-09-14T12:21:53.147Z,3.97
2018-09-14T12:24:26.151Z,3.83
2018-09-14T12:27:01.381Z,4.37
2018-09-14T12:29:34.563Z,4.63
2018-09-14T12:32:20.460Z,4.37
2018-09-14T12:34:55.460Z,4.43
2018-09-14T12:37:36.965Z,4.40
2018-09-14T12:40:15.072Z,4.20
2018-09-14T12:42:52.266Z,3.37
2018-09-14T12:45:24.969Z,4.07
2018-09-14T12:48:01.125Z,4.40
2018-09-14T12:50:37.497Z,4.40
2018-09-14T12:53:07.375Z,4.50
2018-09-14T12:55:39.382Z,4.87
2018-09-14T12:58:17.476Z,5.43
2018-09-14T13:00:54.654Z,5.73
2018-09-14T13:03:30.545Z,5.37
2018-09-14T13:06:07.677Z,5.10
2018-09-14T13:08:42.551Z,5.77
2018-09-14T13:11:20.878Z,5.20
2018-09-14T13:13:50.233Z,5.13
2018-09-14T13:16:29.861Z,5.40
2018-09-14T13:19:07.787Z,5.30
2018-09-14T13:21:43.794Z,4.83
2018-09-14T13:24:16.859Z,5.13
2018-09-14T13:26:52.485Z,5.43
2018-09-14T13:29:25.810Z,4.77
2018-09-14T13:31:56.413Z,4.30
2018-09-14T13:34:34.149Z,5.90
2018-09-14T13:37:09.499Z,4.83
2018-09-14T13:39:48.704Z,5.50
2018-09-14T13:42:22.704Z,5.40
2018-09-14T13:44:55.905Z,5.27
2018-09-14T13:47:28.805Z,5.37
2018-09-14T13:50:05.474Z,4.70
2018-09-14T13:52:43.243Z,5.63
2018-09-14T13:55:21.677Z,5.20
2018-09-14T13:57:58.112Z,5.33
2018-09-14T14:00:32.110Z,5.30
2018-09-14T14:03:05.688Z,5.43
2018-09-14T14:05:37.720Z,6.13
2018-09-14T14:08:11.925Z,6.20
2018-09-14T14:10:46.323Z,7.00
2018-09-14T14:13:21.117Z,6.60
2018-09-14T14:15:58.024Z,6.27
2018-09-14T14:18:29.627Z,7.20
2018-09-14T14:21:04.250Z,8.27
2018-09-14T14:23:41.753Z,7.97
2018-09-14T14:26:18.430Z,7.13
2018-09-14T14:28:51.934Z,9.83
2018-09-14T14:31:24.045Z,10.03
2018-09-14T14:33:57.637Z,10.10
2018-09-14T14:36:31.740Z,11.40
2018-09-14T14:39:08.567Z,10.30
2018-09-14T14:41:45.367Z,11.10
2018-09-14T14:44:18.046Z,10.90
2018-09-14T14:46:52.946Z,11.87
2018-09-14T14:49:30.149Z,11.40
2018-09-14T14:52:06.863Z,12.00
2018-09-14T14:54:40.368Z,11.17
2018-09-14T14:57:13.822Z,11.33
2018-09-14T14:59:48.893Z,12.10
2018-09-14T15:02:20.029Z,11.77
2018-09-14T15:04:59.667Z,11.57
2018-09-14T15:07:36.659Z,12.30
2018-09-14T15:10:16.061Z,13.53
2018-09-14T15:12:51.062Z,12.27
2018-09-14T15:15:25.920Z,13.20
2018-09-14T15:17:54.836Z,12.90
2018-09-14T15:20:26.608Z,14.57
2018-09-14T15:22:54.823Z,12.43
2018-09-14T15:25:22.764Z,12.17
2018-09-14T15:27:57.567Z,12.67
2018-09-14T15:30:32.661Z,12.90
2018-09-14T15:33:04.347Z,13.67
2018-09-14T15:35:32.932Z,13.07
2018-09-14T15:38:03.784Z,12.83
2018-09-14T15:40:37.202Z,12.17
2018-09-14T15:43:10.381Z,12.50
2018-09-14T15:45:44.688Z,12.77
2018-09-14T15:48:16.203Z,12.30
2018-09-14T15:50:54.688Z,13.90
2018-09-14T15:53:28.368Z,13.00
2018-09-14T15:56:02.360Z,12.00
2018-09-14T15:58:37.027Z,12.50
2018-09-14T16:01:08.592Z,12.17
2018-09-14T16:03:39.169Z,12.07
2018-09-14T16:06:14.032Z,11.93
2018-09-14T16:08:48.100Z,12.87
2018-09-14T16:11:20.053Z,12.40
2018-09-14T16:13:52.511Z,11.40
2018-09-14T16:16:25.494Z,14.13
2018-09-14T16:18:58.111Z,12.80
2018-09-14T16:21:32.512Z,15.40
2018-09-14T16:24:07.026Z,14.90
2018-09-14T16:26:37.736Z,14.63
2018-09-14T16:29:13.514Z,14.60
2018-09-14T16:31:48.126Z,13.53
2018-09-14T16:34:27.286Z,13.63
2018-09-14T16:36:58.872Z,18.23
2018-09-14T16:39:30.673Z,14.90
2018-09-14T16:42:03.173Z,14.90
2018-09-14T16:44:37.156Z,12.20
2018-09-14T16:47:11.528Z,13.53
2018-09-14T16:49:44.925Z,17.27
2018-09-14T16:52:15.337Z,18.70
2018-09-14T16:54:45.640Z,14.37
2018-09-14T16:57:18.715Z,13.33
2018-09-14T16:59:51.511Z,18.23
2018-09-14T17:02:23.289Z,21.90
2018-09-14T17:04:57.369Z,22.80
2018-09-14T17:07:30.440Z,20.27
2018-09-14T17:10:03.642Z,17.77
2018-09-14T17:12:35.755Z,16.73
2018-09-14T17:15:07.062Z,14.10
2018-09-14T17:17:41.441Z,14.43
2018-09-14T17:20:16.145Z,19.03
2018-09-14T17:22:48.379Z,20.87
2018-09-14T17:25:21.351Z,18.20
2018-09-14T17:27:55.771Z,20.47
2018-09-14T17:30:32.374Z,18.50
2018-09-14T17:33:08.746Z,19.10
2018-09-14T17:35:41.841Z,19.70
2018-09-14T17:38:16.160Z,19.07
2018-09-14T17:40:49.257Z,18.77
2018-09-14T17:43:22.631Z,20.57
2018-09-14T17:45:54.161Z,19.20
2018-09-14T17:48:24.368Z,21.60
2018-09-14T17:50:54.151Z,23.93
2018-09-14T17:53:28.227Z,23.30
2018-09-14T17:55:56.585Z,21.30
2018-09-14T17:58:30.470Z,21.77
2018-09-14T18:01:08.523Z,22.03
2018-09-14T18:03:40.375Z,20.33
2018-09-14T18:06:12.476Z,23.50
2018-09-14T18:08:49.679Z,21.67
2018-09-14T18:11:21.981Z,23.17
2018-09-14T18:13:51.252Z,22.60
2018-09-14T18:16:26.815Z,21.90
2018-09-14T18:18:59.982Z,23.77
2018-09-14T18:21:31.577Z,23.60
2018-09-14T18:24:04.559Z,23.67
2018-09-14T18:26:38.990Z,22.97
2018-09-14T18:29:10.233Z,23.60
2018-09-14T18:31:40.830Z,22.60
2018-09-14T18:34:11.698Z,25.10
2018-09-14T18:36:48.399Z,25.27
2018-09-14T18:39:20.505Z,24.90
2018-09-14T18:41:54.518Z,24.27
2018-09-14T18:44:26.471Z,24.27
2018-09-14T18:47:00.812Z,25.83
2018-09-14T18:49:32.812Z,27.23
2018-09-14T18:52:07.099Z,25.53
2018-09-14T18:54:43.419Z,25.60
2018-09-14T18:57:14.012Z,26.30
2018-09-14T18:59:54.776Z,24.10
2018-09-14T19:02:27.591Z,26.10
2018-09-14T19:04:58.703Z,27.23
2018-09-14T19:07:37.528Z,24.90
2018-09-14T19:10:10.918Z,26.43
2018-09-14T19:12:47.610Z,24.57
2018-09-14T19:15:18.322Z,24.50
2018-09-14T19:17:49.405Z,24.23
2018-09-14T19:20:26.340Z,27.80
2018-09-14T19:22:59.418Z,29.37
2018-09-14T19:25:31.930Z,25.23
2018-09-14T19:28:07.196Z,30.07
2018-09-14T19:30:39.449Z,25.03
2018-09-14T19:33:14.471Z,25.27
2018-09-14T19:35:46.560Z,26.30
2018-09-14T19:38:23.487Z,27.13
2018-09-14T19:41:00.022Z,25.10
2018-09-14T19:43:34.634Z,28.10
2018-09-14T19:46:03.847Z,27.23
2018-09-14T19:48:38.528Z,25.90
2018-09-14T19:51:16.487Z,26.57
2018-09-14T19:53:49.040Z,25.93
2018-09-14T19:56:23.838Z,26.53
2018-09-14T19:58:53.539Z,26.83
2018-09-14T20:01:25.870Z,26.50
2018-09-14T20:03:56.945Z,27.90
2018-09-14T20:06:31.065Z,29.70
2018-09-14T20:09:03.688Z,29.07
2018-09-14T20:11:36.616Z,27.60
2018-09-14T20:14:06.552Z,25.30
2018-09-14T20:16:35.859Z,26.97
2018-09-14T20:19:08.256Z,26.83
2018-09-14T20:21:40.485Z,28.53
2018-09-14T20:24:11.047Z,29.97
2018-09-14T20:26:43.697Z,26.73
2018-09-14T20:29:15.671Z,28.53
2018-09-14T20:31:47.285Z,26.37
2018-09-14T20:34:22.352Z,25.87
2018-09-14T20:36:52.568Z,28.27
2018-09-14T20:39:21.676Z,27.60
2018-09-14T20:41:52.351Z,25.80
2018-09-14T20:44:23.208Z,25.83
2018-09-14T20:46:57.454Z,26.37
2018-09-14T20:49:29.545Z,26.60
2018-09-14T20:52:00.098Z,27.90
2018-09-14T20:54:34.282Z,26.33
2018-09-14T20:57:08.188Z,24.10
2018-09-14T20:59:42.305Z,24.93
2018-09-14T21:02:12.782Z,24.77
2018-09-14T21:04:45.544Z,26.77
2018-09-14T21:07:25.725Z,25.83
2018-09-14T21:09:55.986Z,23.77
2018-09-14T21:12:29.828Z,22.63
2018-09-14T21:15:01.688Z,24.40
2018-09-14T21:17:33.474Z,24.60
2018-09-14T21:20:11.431Z,23.77
2018-09-14T21:22:41.419Z,23.40
2018-09-14T21:25:13.598Z,22.67
2018-09-14T21:27:47.511Z,24.53
2018-09-14T21:30:18.035Z,21.40
2018-09-14T21:32:52.580Z,23.23
2018-09-14T21:35:25.104Z,22.17
2018-09-14T21:37:59.908Z,20.93
2018-09-14T21:40:35.467Z,20.20
2018-09-14T21:43:12.910Z,20.00
2018-09-14T21:45:44.944Z,22.03
2018-09-14T21:48:16.537Z,19.93
2018-09-14T21:50:49.514Z,21.23
2018-09-14T21:53:25.916Z,17.37
2018-09-14T21:58:22.128Z,18.20
2018-09-14T22:01:01.538Z,19.50
2018-09-14T22:03:32.418Z,19.00
2018-09-14T22:06:06.136Z,20.27
2018-09-14T22:08:38.128Z,18.60
2018-09-14T22:11:09.723Z,18.60
2018-09-14T22:13:42.829Z,17.53
2018-09-14T22:16:13.297Z,19.07
2018-09-14T22:18:45.841Z,17.57
2018-09-14T22:21:18.731Z,17.87
2018-09-14T22:23:50.252Z,18.23
2018-09-14T22:26:21.154Z,17.93
2018-09-14T22:28:53.356Z,18.20
2018-09-14T22:31:24.403Z,17.83
2018-09-14T22:33:55.035Z,16.97
2018-09-14T22:36:31.924Z,19.50
2018-09-14T22:39:05.345Z,17.60
2018-09-14T22:41:36.238Z,18.70
2018-09-14T22:44:06.457Z,18.77
2018-09-14T22:46:37.993Z,16.83
2018-09-14T22:49:10.255Z,17.50
2018-09-14T22:51:42.532Z,18.07
2018-09-14T22:54:14.552Z,20.83
2018-09-14T22:56:47.370Z,18.10
2018-09-14T22:59:17.655Z,22.60
2018-09-14T23:01:53.368Z,20.20
2018-09-14T23:04:24.616Z,21.67
2018-09-14T23:06:59.757Z,21.80
2018-09-14T23:09:31.964Z,20.97
2018-09-14T23:12:03.920Z,19.47
2018-09-14T23:14:35.442Z,21.40
2018-09-14T23:17:11.965Z,22.37
2018-09-14T23:19:41.523Z,21.10
2018-09-14T23:22:13.666Z,19.73
2018-09-14T23:24:45.491Z,20.83
2018-09-14T23:27:18.808Z,21.20
2018-09-14T23:29:51.426Z,18.50
2018-09-14T23:32:20.693Z,22.57
2018-09-14T23:34:54.481Z,20.27
2018-09-14T23:37:26.875Z,21.20
2018-09-14T23:39:57.842Z,18.37
2018-09-14T23:42:29.482Z,17.23
2018-09-14T23:45:01.677Z,19.00
2018-09-14T23:47:33.983Z,20.83
2018-09-14T23:50:08.342Z,20.90
2018-09-14T23:52:41.329Z,19.03
2018-09-14T23:55:13.103Z,18.20
2018-09-14T23:57:49.085Z,19.43
